Time,TemperatureF,DewpointF,PressureIn,WindDirection,WindDirectionDegrees,WindSpeedMPH,WindSpeedGustMPH,Humidity,HourlyPrecipIn,Conditions,Clouds,dailyrainin,SoftwareType,DateUTC
2013-10-07 00:13:00,49.0,-99.9,-100.00,WSW,257,2.0,5.0,-999,0.00,,,0.07,,2013-10-07 05:13:00,
2013-10-07 00:23:00,49.0,-99.9,-100.00,WSW,257,2.0,5.0,-999,0.00,,,0.07,,2013-10-07 05:23:00,
2013-10-07 00:44:00,49.0,-99.9,-100.00,WSW,252,3.0,5.0,-999,0.00,,,0.07,,2013-10-07 05:44:00,
2013-10-07 00:52:00,49.0,-99.9,-100.00,WSW,252,3.0,5.0,-999,0.00,,,0.07,,2013-10-07 05:52:00,
2013-10-07 01:12:00,50.0,-99.9,-100.00,WSW,239,3.0,5.0,-999,0.00,,,0.07,,2013-10-07 06:12:00,
2013-10-07 01:22:00,50.0,-99.9,-100.00,WSW,239,3.0,5.0,-999,0.00,,,0.07,,2013-10-07 06:22:00,
2013-10-07 01:43:00,50.0,-99.9,-100.00,WSW,242,2.0,5.0,-999,0.00,,,0.07,,2013-10-07 06:43:00,
2013-10-07 02:12:00,50.0,-99.9,-100.00,WSW,247,2.0,4.0,-999,0.00,,,0.07,,2013-10-07 07:12:00,
2013-10-07 02:22:00,50.0,-99.9,-100.00,WSW,247,2.0,4.0,-999,0.00,,,0.07,,2013-10-07 07:22:00,
2013-10-07 02:42:00,50.0,-99.9,-100.00,WSW,239,4.0,12.0,-999,0.00,,,0.07,,2013-10-07 07:42:00,
2013-10-07 02:52:00,50.0,-99.9,-100.00,WSW,239,4.0,12.0,-999,0.00,,,0.07,,2013-10-07 07:52:00,
2013-10-07 03:12:00,50.0,-99.9,-100.00,WSW,255,4.0,8.0,-999,0.00,,,0.07,,2013-10-07 08:12:00,
2013-10-07 03:22:00,50.0,-99.9,-100.00,WSW,255,4.0,8.0,-999,0.00,,,0.07,,2013-10-07 08:22:00,
2013-10-07 03:42:00,50.0,-99.9,-100.00,WSW,243,3.0,6.0,-999,0.00,,,0.07,,2013-10-07 08:42:00,
2013-10-07 03:52:00,50.0,-99.9,-100.00,WSW,243,3.0,6.0,-999,0.00,,,0.07,,2013-10-07 08:52:00,
2013-10-07 04:11:00,51.0,-99.9,-100.00,WSW,253,3.0,5.0,-999,0.00,,,0.07,,2013-10-07 09:11:00,
2013-10-07 04:22:00,51.0,-99.9,-100.00,WSW,253,3.0,5.0,-999,0.00,,,0.07,,2013-10-07 09:22:00,
2013-10-07 04:43:00,51.0,-99.9,-100.00,West,260,4.0,5.0,-999,0.00,,,0.07,,2013-10-07 09:43:00,
2013-10-07 04:54:00,51.0,-99.9,-100.00,West,260,4.0,5.0,-999,0.00,,,0.07,,2013-10-07 09:54:00,
2013-10-07 05:13:00,51.0,-99.9,-100.00,West,271,2.0,5.0,-999,0.00,,,0.07,,2013-10-07 10:13:00,
2013-10-07 05:23:00,51.0,-99.9,-100.00,West,271,2.0,5.0,-999,0.00,,,0.07,,2013-10-07 10:23:00,
2013-10-07 05:43:00,50.0,-99.9,-100.00,WSW,243,2.0,4.0,-999,0.00,,,0.07,,2013-10-07 10:43:00,
2013-10-07 05:53:00,50.0,-99.9,-100.00,WSW,243,2.0,4.0,-999,0.00,,,0.07,,2013-10-07 10:53:00,
2013-10-07 06:12:00,51.0,-99.9,-100.00,WSW,242,2.0,4.0,-999,0.00,,,0.07,,2013-10-07 11:12:00,
2013-10-07 06:22:00,51.0,-99.9,-100.00,WSW,242,2.0,4.0,-999,0.00,,,0.07,,2013-10-07 11:22:00,
2013-10-07 06:42:00,51.0,-99.9,-100.00,West,262,2.0,6.0,-999,0.00,,,0.07,,2013-10-07 11:42:00,
2013-10-07 06:53:00,51.0,-99.9,-100.00,West,262,2.0,6.0,-999,0.00,,,0.07,,2013-10-07 11:53:00,
2013-10-07 07:12:00,51.0,-99.9,-100.00,WSW,253,2.0,3.0,-999,0.00,,,0.07,,2013-10-07 12:12:00,
2013-10-07 07:22:00,51.0,-99.9,-100.00,WSW,253,2.0,3.0,-999,0.00,,,0.07,,2013-10-07 12:22:00,
2013-10-07 07:43:00,50.0,-99.9,-100.00,WSW,252,3.0,4.0,-999,0.00,,,0.07,,2013-10-07 12:43:00,
2013-10-07 07:53:00,50.0,-99.9,-100.00,WSW,252,3.0,4.0,-999,0.00,,,0.07,,2013-10-07 12:53:00,
2013-10-07 08:00:00,50.0,-99.9,-100.00,WSW,248,4.0,8.0,-999,0.00,,,0.07,,2013-10-07 13:00:00,
2013-10-07 08:11:00,50.0,-99.9,-100.00,WSW,251,2.0,3.0,-999,0.00,,,0.07,,2013-10-07 13:11:00,
2013-10-07 08:22:00,50.0,-99.9,-100.00,WSW,251,2.0,3.0,-999,0.00,,,0.07,,2013-10-07 13:22:00,
2013-10-07 08:42:00,50.0,-99.9,-100.00,WSW,248,4.0,8.0,-999,0.00,,,0.07,,2013-10-07 13:42:00,
2013-10-07 08:52:00,50.0,-99.9,-100.00,WSW,248,4.0,8.0,-999,0.00,,,0.07,,2013-10-07 13:52:00,
2013-10-07 09:22:00,52.0,-99.9,-100.00,WSW,255,5.0,6.0,-999,0.00,,,0.07,,2013-10-07 14:22:00,
2013-10-07 09:43:00,53.0,-99.9,-100.00,WSW,258,4.0,7.0,-999,0.00,,,0.07,,2013-10-07 14:43:00,
2013-10-07 10:11:00,55.0,-99.9,-100.00,West,260,2.0,5.0,-999,0.00,,,0.07,,2013-10-07 15:11:00,
2013-10-07 10:22:00,55.0,-99.9,-100.00,West,260,2.0,5.0,-999,0.00,,,0.07,,2013-10-07 15:22:00,
2013-10-07 10:43:00,55.0,-99.9,-100.00,SW,223,3.0,5.0,-999,0.00,,,0.07,,2013-10-07 15:43:00,
2013-10-07 10:54:00,55.0,-99.9,-100.00,SW,223,3.0,5.0,-999,0.00,,,0.07,,2013-10-07 15:54:00,
2013-10-07 11:13:00,58.0,-99.9,-100.00,West,264,2.0,4.0,-999,0.00,,,0.07,,2013-10-07 16:13:00,
2013-10-07 11:23:00,58.0,-99.9,-100.00,West,264,2.0,4.0,-999,0.00,,,0.07,,2013-10-07 16:23:00,
2013-10-07 11:43:00,59.0,-99.9,-100.00,SW,236,2.0,6.0,-999,0.00,,,0.07,,2013-10-07 16:43:00,
2013-10-07 11:53:00,59.0,-99.9,-100.00,SW,236,2.0,6.0,-999,0.00,,,0.07,,2013-10-07 16:53:00,
2013-10-07 12:12:00,60.0,-99.9,-100.00,South,182,3.0,6.0,-999,0.00,,,0.07,,2013-10-07 17:12:00,
2013-10-07 12:23:00,60.0,-99.9,-100.00,South,182,3.0,6.0,-999,0.00,,,0.07,,2013-10-07 17:23:00,
2013-10-07 12:43:00,63.0,-99.9,-100.00,SSW,206,2.0,5.0,-999,0.00,,,0.07,,2013-10-07 17:43:00,
2013-10-07 12:53:00,63.0,-99.9,-100.00,SSW,206,2.0,5.0,-999,0.00,,,0.07,,2013-10-07 17:53:00,
2013-10-07 13:12:00,64.0,-99.9,-100.00,South,190,4.0,7.0,-999,0.00,,,0.07,,2013-10-07 18:12:00,
2013-10-07 13:22:00,64.0,-99.9,-100.00,South,190,4.0,7.0,-999,0.00,,,0.07,,2013-10-07 18:22:00,
2013-10-07 13:42:00,65.0,-99.9,-100.00,SSW,197,3.0,5.0,-999,0.00,,,0.07,,2013-10-07 18:42:00,
2013-10-07 14:12:00,67.0,-99.9,-100.00,SW,235,3.0,7.0,-999,0.00,,,0.07,,2013-10-07 19:12:00,
2013-10-07 14:22:00,67.0,-99.9,-100.00,SW,235,3.0,7.0,-999,0.00,,,0.07,,2013-10-07 19:22:00,
2013-10-07 14:30:00,69.0,-99.9,-100.00,SSW,209,5.0,9.0,-999,0.00,,,0.06,,2013-10-07 19:30:00,
2013-10-07 14:42:00,68.0,-99.9,-100.00,SW,216,4.0,8.0,-999,0.00,,,0.07,,2013-10-07 19:42:00,
2013-10-07 14:53:00,68.0,-99.9,-100.00,SW,216,4.0,8.0,-999,0.00,,,0.07,,2013-10-07 19:53:00,
2013-10-07 15:12:00,69.0,-99.9,-100.00,SSW,209,5.0,9.0,-999,0.00,,,0.06,,2013-10-07 20:12:00,
2013-10-07 15:22:00,69.0,-99.9,-100.00,SSW,209,5.0,9.0,-999,0.00,,,0.06,,2013-10-07 20:22:00,
2013-10-07 16:12:00,71.0,-99.9,-100.00,WSW,240,5.0,9.0,-999,0.00,,,0.06,,2013-10-07 21:12:00,
2013-10-07 16:23:00,71.0,-99.9,-100.00,WSW,240,5.0,9.0,-999,0.00,,,0.06,,2013-10-07 21:23:00,
2013-10-07 16:43:00,71.0,-99.9,-100.00,SW,233,6.0,13.0,-999,0.01,,,0.06,,2013-10-07 21:43:00,
2013-10-07 16:55:00,71.0,-99.9,-100.00,SW,233,6.0,13.0,-999,0.01,,,0.06,,2013-10-07 21:55:00,
2013-10-07 17:13:00,73.0,-99.9,-100.00,WSW,240,3.0,5.0,-999,0.01,,,0.06,,2013-10-07 22:13:00,
2013-10-07 17:24:00,73.0,-99.9,-100.00,WSW,240,3.0,5.0,-999,0.01,,,0.06,,2013-10-07 22:24:00,
2013-10-07 17:43:00,72.0,-99.9,-100.00,WSW,253,3.0,5.0,-999,0.00,,,0.05,,2013-10-07 22:43:00,
2013-10-07 17:54:00,72.0,-99.9,-100.00,WSW,253,3.0,5.0,-999,0.00,,,0.05,,2013-10-07 22:54:00,
2013-10-07 18:12:00,71.0,-99.9,-100.00,WSW,253,3.0,8.0,-999,0.00,,,0.05,,2013-10-07 23:12:00,
2013-10-07 18:23:00,71.0,-99.9,-100.00,WSW,253,3.0,8.0,-999,0.00,,,0.05,,2013-10-07 23:23:00,
2013-10-07 18:42:00,69.0,-99.9,-100.00,WSW,251,2.0,5.0,-999,0.00,,,0.05,,2013-10-07 23:42:00,
2013-10-07 18:52:00,69.0,-99.9,-100.00,WSW,251,2.0,5.0,-999,0.00,,,0.05,,2013-10-07 23:52:00,
2013-10-07 19:12:00,66.0,-99.9,-100.00,WSW,246,1.0,3.0,-999,0.00,,,0.05,,2013-10-08 00:12:00,
2013-10-07 19:22:00,66.0,-99.9,-100.00,WSW,246,1.0,3.0,-999,0.00,,,0.05,,2013-10-08 00:22:00,
2013-10-07 19:42:00,63.0,-99.9,-100.00,SW,232,1.0,2.0,-999,0.00,,,0.04,,2013-10-08 00:42:00,
2013-10-07 19:52:00,63.0,-99.9,-100.00,SW,232,1.0,2.0,-999,0.00,,,0.04,,2013-10-08 00:52:00,
2013-10-07 20:12:00,60.0,-99.9,-100.00,SW,214,1.0,2.0,-999,0.00,,,0.04,,2013-10-08 01:12:00,
2013-10-07 20:22:00,60.0,-99.9,-100.00,SW,214,1.0,2.0,-999,0.00,,,0.04,,2013-10-08 01:22:00,
2013-10-07 20:42:00,61.0,-99.9,-100.00,SW,233,1.0,2.0,-999,0.00,,,0.04,,2013-10-08 01:42:00,
2013-10-07 20:52:00,61.0,-99.9,-100.00,SW,233,1.0,2.0,-999,0.00,,,0.04,,2013-10-08 01:52:00,
2013-10-07 21:11:00,60.0,-99.9,-100.00,South,186,1.0,3.0,-999,0.00,,,0.04,,2013-10-08 02:11:00,
2013-10-07 21:22:00,60.0,-99.9,-100.00,South,186,1.0,3.0,-999,0.00,,,0.04,,2013-10-08 02:22:00,
2013-10-07 21:42:00,60.0,-99.9,-100.00,South,190,2.0,3.0,-999,0.00,,,0.02,,2013-10-08 02:42:00,
2013-10-07 22:12:00,60.0,-99.9,-100.00,SSE,153,1.0,2.0,-999,0.00,,,0.01,,2013-10-08 03:12:00,
2013-10-07 22:22:00,60.0,-99.9,-100.00,SSE,153,1.0,2.0,-999,0.00,,,0.01,,2013-10-08 03:22:00,
2013-10-07 22:30:00,59.0,-99.9,-100.00,South,177,1.0,2.0,-999,0.00,,,0.01,,2013-10-08 03:30:00,
2013-10-07 22:44:00,59.0,-99.9,-100.00,SSE,162,2.0,2.0,-999,0.00,,,0.01,,2013-10-08 03:44:00,
2013-10-07 22:55:00,59.0,-99.9,-100.00,SSE,162,2.0,2.0,-999,0.00,,,0.01,,2013-10-08 03:55:00,
2013-10-07 23:14:00,59.0,-99.9,-100.00,South,177,1.0,2.0,-999,0.00,,,0.01,,2013-10-08 04:14:00,
2013-10-07 23:24:00,59.0,-99.9,-100.00,South,177,1.0,2.0,-999,0.00,,,0.01,,2013-10-08 04:24:00,